sensor_id;sensor_type;location;lat;lon;timestamp;P1;durP1;ratioP1;P2;durP2;ratioP2
77586;SDS011;66744;49.716;17.158;2024-03-25T00:02:30;2.13;;;1.35;;
77586;SDS011;66744;49.716;17.158;2024-03-25T00:05:49;3.25;;;1.90;;
77586;SDS011;66744;49.716;17.158;2024-03-25T00:08:53;2.47;;;1.40;;
77586;SDS011;66744;49.716;17.158;2024-03-25T00:12:00;3.67;;;1.55;;
77586;SDS011;66744;49.716;17.158;2024-03-25T00:15:06;3.97;;;1.73;;
77586;SDS011;66744;49.716;17.158;2024-03-25T00:18:10;3.38;;;1.52;;
77586;SDS011;66744;49.716;17.158;2024-03-25T00:21:12;4.30;;;2.35;;
77586;SDS011;66744;49.716;17.158;2024-03-25T00:24:13;3.15;;;2.40;;
77586;SDS011;66744;49.716;17.158;2024-03-25T00:27:19;2.00;;;1.38;;
77586;SDS011;66744;49.716;17.158;2024-03-25T00:30:23;3.55;;;1.90;;
77586;SDS011;66744;49.716;17.158;2024-03-25T00:33:25;2.42;;;1.88;;
77586;SDS011;66744;49.716;17.158;2024-03-25T00:36:29;3.03;;;1.95;;
77586;SDS011;66744;49.716;17.158;2024-03-25T00:39:33;2.78;;;1.70;;
77586;SDS011;66744;49.716;17.158;2024-03-25T00:42:37;3.53;;;2.00;;
77586;SDS011;66744;49.716;17.158;2024-03-25T00:45:39;3.97;;;2.50;;
77586;SDS011;66744;49.716;17.158;2024-03-25T00:48:40;2.35;;;2.13;;
77586;SDS011;66744;49.716;17.158;2024-03-25T00:51:43;2.35;;;1.65;;
77586;SDS011;66744;49.716;17.158;2024-03-25T00:54:48;2.28;;;1.98;;
77586;SDS011;66744;49.716;17.158;2024-03-25T00:57:51;2.42;;;1.65;;
77586;SDS011;66744;49.716;17.158;2024-03-25T01:04:17;2.50;;;1.77;;
77586;SDS011;66744;49.716;17.158;2024-03-25T01:07:19;3.83;;;1.50;;
77586;SDS011;66744;49.716;17.158;2024-03-25T01:10:20;3.97;;;1.65;;
77586;SDS011;66744;49.716;17.158;2024-03-25T01:13:21;2.42;;;1.83;;
77586;SDS011;66744;49.716;17.158;2024-03-25T01:16:23;4.18;;;2.15;;
77586;SDS011;66744;49.716;17.158;2024-03-25T01:19:24;3.63;;;2.22;;
77586;SDS011;66744;49.716;17.158;2024-03-25T01:22:28;2.55;;;2.17;;
77586;SDS011;66744;49.716;17.158;2024-03-25T01:25:31;2.65;;;1.70;;
77586;SDS011;66744;49.716;17.158;2024-03-25T01:28:35;2.80;;;2.60;;
77586;SDS011;66744;49.716;17.158;2024-03-25T01:31:37;2.30;;;1.95;;
77586;SDS011;66744;49.716;17.158;2024-03-25T01:34:38;2.47;;;2.00;;
77586;SDS011;66744;49.716;17.158;2024-03-25T01:37:39;4.10;;;2.15;;
77586;SDS011;66744;49.716;17.158;2024-03-25T01:40:41;2.15;;;1.90;;
77586;SDS011;66744;49.716;17.158;2024-03-25T01:43:42;3.80;;;1.60;;
77586;SDS011;66744;49.716;17.158;2024-03-25T01:46:44;2.60;;;1.90;;
77586;SDS011;66744;49.716;17.158;2024-03-25T01:49:47;2.42;;;2.22;;
77586;SDS011;66744;49.716;17.158;2024-03-25T01:52:53;3.53;;;1.80;;
77586;SDS011;66744;49.716;17.158;2024-03-25T01:55:55;2.55;;;2.13;;
77586;SDS011;66744;49.716;17.158;2024-03-25T01:58:58;2.65;;;2.15;;
77586;SDS011;66744;49.716;17.158;2024-03-25T02:02:03;2.22;;;1.55;;
77586;SDS011;66744;49.716;17.158;2024-03-25T02:05:05;3.90;;;1.73;;
77586;SDS011;66744;49.716;17.158;2024-03-25T02:08:10;1.88;;;1.42;;
77586;SDS011;66744;49.716;17.158;2024-03-25T02:11:14;2.40;;;2.20;;
77586;SDS011;66744;49.716;17.158;2024-03-25T02:14:17;2.30;;;2.10;;
77586;SDS011;66744;49.716;17.158;2024-03-25T02:17:21;4.18;;;1.95;;
77586;SDS011;66744;49.716;17.158;2024-03-25T02:20:23;2.20;;;2.00;;
77586;SDS011;66744;49.716;17.158;2024-03-25T02:23:24;2.67;;;2.35;;
77586;SDS011;66744;49.716;17.158;2024-03-25T02:26:27;2.60;;;2.40;;
77586;SDS011;66744;49.716;17.158;2024-03-25T02:29:33;2.10;;;1.80;;
77586;SDS011;66744;49.716;17.158;2024-03-25T02:32:37;2.30;;;1.65;;
77586;SDS011;66744;49.716;17.158;2024-03-25T02:35:39;2.03;;;1.70;;
77586;SDS011;66744;49.716;17.158;2024-03-25T02:38:47;2.83;;;2.15;;
77586;SDS011;66744;49.716;17.158;2024-03-25T02:41:50;2.22;;;1.90;;
77586;SDS011;66744;49.716;17.158;2024-03-25T02:44:53;2.13;;;1.58;;
77586;SDS011;66744;49.716;17.158;2024-03-25T02:47:57;2.47;;;1.42;;
77586;SDS011;66744;49.716;17.158;2024-03-25T02:50:59;3.13;;;1.58;;
77586;SDS011;66744;49.716;17.158;2024-03-25T02:54:00;2.55;;;1.42;;
77586;SDS011;66744;49.716;17.158;2024-03-25T02:57:03;2.10;;;1.73;;
77586;SDS011;66744;49.716;17.158;2024-03-25T03:00:05;3.20;;;2.17;;
77586;SDS011;66744;49.716;17.158;2024-03-25T03:03:10;3.00;;;2.00;;
77586;SDS011;66744;49.716;17.158;2024-03-25T03:06:11;2.65;;;2.22;;
77586;SDS011;66744;49.716;17.158;2024-03-25T03:09:13;1.90;;;1.42;;
77586;SDS011;66744;49.716;17.158;2024-03-25T03:12:17;2.10;;;1.85;;
77586;SDS011;66744;49.716;17.158;2024-03-25T03:15:19;2.65;;;1.33;;
77586;SDS011;66744;49.716;17.158;2024-03-25T03:18:20;2.33;;;2.13;;
77586;SDS011;66744;49.716;17.158;2024-03-25T03:21:21;2.55;;;1.42;;
77586;SDS011;66744;49.716;17.158;2024-03-25T03:24:22;1.52;;;1.33;;
77586;SDS011;66744;49.716;17.158;2024-03-25T03:27:24;2.47;;;1.77;;
77586;SDS011;66744;49.716;17.158;2024-03-25T03:30:28;1.73;;;1.15;;
77586;SDS011;66744;49.716;17.158;2024-03-25T03:33:29;2.72;;;1.60;;
77586;SDS011;66744;49.716;17.158;2024-03-25T03:36:31;1.98;;;1.40;;
77586;SDS011;66744;49.716;17.158;2024-03-25T03:39:32;2.38;;;2.17;;
77586;SDS011;66744;49.716;17.158;2024-03-25T03:42:33;3.17;;;2.15;;
77586;SDS011;66744;49.716;17.158;2024-03-25T03:45:35;2.05;;;1.23;;
77586;SDS011;66744;49.716;17.158;2024-03-25T03:48:38;1.92;;;1.17;;
77586;SDS011;66744;49.716;17.158;2024-03-25T03:51:40;2.20;;;1.45;;
77586;SDS011;66744;49.716;17.158;2024-03-25T03:54:41;2.03;;;1.30;;
77586;SDS011;66744;49.716;17.158;2024-03-25T03:57:43;1.48;;;1.05;;
77586;SDS011;66744;49.716;17.158;2024-03-25T04:00:47;1.63;;;1.15;;
77586;SDS011;66744;49.716;17.158;2024-03-25T04:03:48;2.15;;;1.77;;
77586;SDS011;66744;49.716;17.158;2024-03-25T04:06:50;2.30;;;1.70;;
77586;SDS011;66744;49.716;17.158;2024-03-25T04:09:55;2.00;;;1.33;;
77586;SDS011;66744;49.716;17.158;2024-03-25T04:12:58;3.22;;;1.88;;
77586;SDS011;66744;49.716;17.158;2024-03-25T04:16:00;2.13;;;1.52;;
77586;SDS011;66744;49.716;17.158;2024-03-25T04:19:05;2.50;;;1.88;;
77586;SDS011;66744;49.716;17.158;2024-03-25T04:22:07;2.97;;;2.08;;
77586;SDS011;66744;49.716;17.158;2024-03-25T04:25:08;2.33;;;1.90;;
77586;SDS011;66744;49.716;17.158;2024-03-25T04:28:13;2.47;;;2.03;;
77586;SDS011;66744;49.716;17.158;2024-03-25T04:31:16;2.25;;;1.30;;
77586;SDS011;66744;49.716;17.158;2024-03-25T04:34:18;1.75;;;1.65;;
77586;SDS011;66744;49.716;17.158;2024-03-25T04:37:21;3.05;;;1.63;;
77586;SDS011;66744;49.716;17.158;2024-03-25T04:40:23;1.30;;;1.02;;
77586;SDS011;66744;49.716;17.158;2024-03-25T04:43:27;1.70;;;1.58;;
77586;SDS011;66744;49.716;17.158;2024-03-25T04:46:28;2.33;;;1.73;;
77586;SDS011;66744;49.716;17.158;2024-03-25T04:49:32;1.65;;;1.40;;
77586;SDS011;66744;49.716;17.158;2024-03-25T04:52:33;2.63;;;2.30;;
77586;SDS011;66744;49.716;17.158;2024-03-25T04:55:35;3.13;;;1.80;;
77586;SDS011;66744;49.716;17.158;2024-03-25T04:58:36;3.90;;;2.95;;
77586;SDS011;66744;49.716;17.158;2024-03-25T05:01:37;3.95;;;2.33;;
77586;SDS011;66744;49.716;17.158;2024-03-25T05:04:39;3.72;;;1.75;;
77586;SDS011;66744;49.716;17.158;2024-03-25T05:07:43;4.38;;;2.53;;
77586;SDS011;66744;49.716;17.158;2024-03-25T05:10:44;4.15;;;3.10;;
77586;SDS011;66744;49.716;17.158;2024-03-25T05:13:46;2.05;;;1.42;;
77586;SDS011;66744;49.716;17.158;2024-03-25T05:16:54;2.58;;;1.55;;
77586;SDS011;66744;49.716;17.158;2024-03-25T05:19:58;3.05;;;1.50;;
77586;SDS011;66744;49.716;17.158;2024-03-25T05:22:59;2.17;;;1.85;;
77586;SDS011;66744;49.716;17.158;2024-03-25T05:26:08;2.33;;;1.92;;
77586;SDS011;66744;49.716;17.158;2024-03-25T05:29:09;1.70;;;1.60;;
77586;SDS011;66744;49.716;17.158;2024-03-25T05:32:11;1.98;;;1.27;;
77586;SDS011;66744;49.716;17.158;2024-03-25T05:35:12;1.98;;;1.77;;
77586;SDS011;66744;49.716;17.158;2024-03-25T05:38:14;2.50;;;1.50;;
77586;SDS011;66744;49.716;17.158;2024-03-25T05:41:15;3.17;;;1.40;;
77586;SDS011;66744;49.716;17.158;2024-03-25T05:44:16;1.48;;;1.33;;
77586;SDS011;66744;49.716;17.158;2024-03-25T05:47:18;2.17;;;1.90;;
77586;SDS011;66744;49.716;17.158;2024-03-25T05:50:19;2.05;;;1.85;;
77586;SDS011;66744;49.716;17.158;2024-03-25T05:53:21;2.10;;;1.80;;
77586;SDS011;66744;49.716;17.158;2024-03-25T05:56:22;1.88;;;1.70;;
77586;SDS011;66744;49.716;17.158;2024-03-25T05:59:24;3.10;;;1.33;;
77586;SDS011;66744;49.716;17.158;2024-03-25T06:02:39;2.53;;;1.95;;
77586;SDS011;66744;49.716;17.158;2024-03-25T06:06:04;2.03;;;1.83;;
77586;SDS011;66744;49.716;17.158;2024-03-25T06:09:15;1.92;;;1.67;;
77586;SDS011;66744;49.716;17.158;2024-03-25T06:12:20;1.63;;;1.23;;
77586;SDS011;66744;49.716;17.158;2024-03-25T06:15:31;2.47;;;1.60;;
77586;SDS011;66744;49.716;17.158;2024-03-25T06:18:40;1.48;;;1.35;;
77586;SDS011;66744;49.716;17.158;2024-03-25T06:21:47;2.83;;;1.80;;
77586;SDS011;66744;49.716;17.158;2024-03-25T06:24:48;3.30;;;1.05;;
77586;SDS011;66744;49.716;17.158;2024-03-25T06:27:54;1.95;;;1.75;;
77586;SDS011;66744;49.716;17.158;2024-03-25T06:31:03;3.80;;;1.33;;
77586;SDS011;66744;49.716;17.158;2024-03-25T06:34:23;1.60;;;1.00;;
77586;SDS011;66744;49.716;17.158;2024-03-25T06:37:24;2.30;;;1.10;;
77586;SDS011;66744;49.716;17.158;2024-03-25T06:40:28;2.03;;;1.05;;
77586;SDS011;66744;49.716;17.158;2024-03-25T06:43:32;1.40;;;1.30;;
77586;SDS011;66744;49.716;17.158;2024-03-25T06:46:43;1.95;;;0.90;;
77586;SDS011;66744;49.716;17.158;2024-03-25T06:49:44;1.73;;;1.17;;
77586;SDS011;66744;49.716;17.158;2024-03-25T06:52:48;1.00;;;0.63;;
77586;SDS011;66744;49.716;17.158;2024-03-25T06:55:53;1.48;;;1.08;;
77586;SDS011;66744;49.716;17.158;2024-03-25T06:59:01;1.17;;;0.95;;
77586;SDS011;66744;49.716;17.158;2024-03-25T07:02:02;1.73;;;1.05;;
77586;SDS011;66744;49.716;17.158;2024-03-25T07:05:04;1.20;;;0.88;;
77586;SDS011;66744;49.716;17.158;2024-03-25T07:08:13;2.08;;;1.88;;
77586;SDS011;66744;49.716;17.158;2024-03-25T07:11:15;1.67;;;1.23;;
77586;SDS011;66744;49.716;17.158;2024-03-25T07:14:22;4.30;;;1.23;;
77586;SDS011;66744;49.716;17.158;2024-03-25T07:20:50;1.70;;;1.17;;
77586;SDS011;66744;49.716;17.158;2024-03-25T07:24:05;1.83;;;1.73;;
77586;SDS011;66744;49.716;17.158;2024-03-25T07:27:09;1.75;;;1.65;;
77586;SDS011;66744;49.716;17.158;2024-03-25T07:30:10;2.15;;;1.25;;
77586;SDS011;66744;49.716;17.158;2024-03-25T07:33:14;1.83;;;1.25;;
77586;SDS011;66744;49.716;17.158;2024-03-25T07:36:15;2.78;;;1.23;;
77586;SDS011;66744;49.716;17.158;2024-03-25T07:39:17;2.30;;;1.52;;
77586;SDS011;66744;49.716;17.158;2024-03-25T07:42:18;2.17;;;1.95;;
77586;SDS011;66744;49.716;17.158;2024-03-25T07:45:22;2.00;;;1.17;;
77586;SDS011;66744;49.716;17.158;2024-03-25T07:48:24;2.10;;;1.13;;
77586;SDS011;66744;49.716;17.158;2024-03-25T07:51:28;1.80;;;1.33;;
77586;SDS011;66744;49.716;17.158;2024-03-25T07:54:30;2.22;;;1.75;;
77586;SDS011;66744;49.716;17.158;2024-03-25T07:57:32;2.38;;;2.00;;
77586;SDS011;66744;49.716;17.158;2024-03-25T08:00:35;2.67;;;1.50;;
77586;SDS011;66744;49.716;17.158;2024-03-25T08:03:37;3.53;;;1.85;;
77586;SDS011;66744;49.716;17.158;2024-03-25T08:06:40;1.85;;;1.40;;
77586;SDS011;66744;49.716;17.158;2024-03-25T08:09:42;2.10;;;1.90;;
77586;SDS011;66744;49.716;17.158;2024-03-25T08:12:43;2.80;;;1.92;;
77586;SDS011;66744;49.716;17.158;2024-03-25T08:16:01;2.35;;;2.15;;
77586;SDS011;66744;49.716;17.158;2024-03-25T08:19:12;1.65;;;1.38;;
77586;SDS011;66744;49.716;17.158;2024-03-25T08:25:30;2.00;;;1.77;;
77586;SDS011;66744;49.716;17.158;2024-03-25T08:28:42;2.78;;;1.48;;
77586;SDS011;66744;49.716;17.158;2024-03-25T08:31:46;1.70;;;1.20;;
77586;SDS011;66744;49.716;17.158;2024-03-25T08:34:50;2.10;;;1.80;;
77586;SDS011;66744;49.716;17.158;2024-03-25T08:37:55;2.60;;;1.05;;
77586;SDS011;66744;49.716;17.158;2024-03-25T08:40:56;1.40;;;0.98;;
77586;SDS011;66744;49.716;17.158;2024-03-25T08:44:07;0.85;;;0.60;;
77586;SDS011;66744;49.716;17.158;2024-03-25T08:47:14;1.77;;;1.67;;
77586;SDS011;66744;49.716;17.158;2024-03-25T08:50:15;1.67;;;1.40;;
77586;SDS011;66744;49.716;17.158;2024-03-25T08:53:19;1.48;;;0.90;;
77586;SDS011;66744;49.716;17.158;2024-03-25T08:56:20;1.08;;;0.98;;
77586;SDS011;66744;49.716;17.158;2024-03-25T08:59:25;1.40;;;1.30;;
77586;SDS011;66744;49.716;17.158;2024-03-25T09:02:33;1.35;;;0.93;;
77586;SDS011;66744;49.716;17.158;2024-03-25T09:05:35;1.67;;;1.58;;
77586;SDS011;66744;49.716;17.158;2024-03-25T09:08:36;1.58;;;1.48;;
77586;SDS011;66744;49.716;17.158;2024-03-25T09:11:58;2.13;;;1.92;;
77586;SDS011;66744;49.716;17.158;2024-03-25T09:15:03;1.52;;;1.35;;
77586;SDS011;66744;49.716;17.158;2024-03-25T09:18:15;2.08;;;1.20;;
77586;SDS011;66744;49.716;17.158;2024-03-25T09:21:19;2.67;;;1.20;;
77586;SDS011;66744;49.716;17.158;2024-03-25T09:24:23;3.70;;;2.42;;
77586;SDS011;66744;49.716;17.158;2024-03-25T09:27:27;1.67;;;1.58;;
77586;SDS011;66744;49.716;17.158;2024-03-25T09:30:36;1.65;;;1.55;;
77586;SDS011;66744;49.716;17.158;2024-03-25T09:37:23;2.13;;;1.50;;
77586;SDS011;66744;49.716;17.158;2024-03-25T09:40:30;1.75;;;1.40;;
77586;SDS011;66744;49.716;17.158;2024-03-25T09:46:59;2.95;;;2.55;;
77586;SDS011;66744;49.716;17.158;2024-03-25T09:50:02;2.60;;;2.40;;
77586;SDS011;66744;49.716;17.158;2024-03-25T09:53:14;3.95;;;3.08;;
77586;SDS011;66744;49.716;17.158;2024-03-25T09:56:19;2.97;;;2.45;;
77586;SDS011;66744;49.716;17.158;2024-03-25T09:59:52;2.97;;;2.78;;
77586;SDS011;66744;49.716;17.158;2024-03-25T10:02:55;3.17;;;2.97;;
77586;SDS011;66744;49.716;17.158;2024-03-25T10:05:59;2.78;;;2.22;;
77586;SDS011;66744;49.716;17.158;2024-03-25T10:12:47;3.80;;;2.30;;
77586;SDS011;66744;49.716;17.158;2024-03-25T10:16:02;3.50;;;3.20;;
77586;SDS011;66744;49.716;17.158;2024-03-25T10:19:06;2.92;;;2.63;;
77586;SDS011;66744;49.716;17.158;2024-03-25T10:22:15;2.45;;;2.25;;
77586;SDS011;66744;49.716;17.158;2024-03-25T10:25:30;2.78;;;2.38;;
77586;SDS011;66744;49.716;17.158;2024-03-25T10:28:38;1.60;;;1.50;;
77586;SDS011;66744;49.716;17.158;2024-03-25T10:31:44;1.73;;;1.63;;
77586;SDS011;66744;49.716;17.158;2024-03-25T10:35:15;1.55;;;1.33;;
77586;SDS011;66744;49.716;17.158;2024-03-25T10:38:21;2.30;;;2.10;;
77586;SDS011;66744;49.716;17.158;2024-03-25T10:41:28;4.70;;;1.75;;
77586;SDS011;66744;49.716;17.158;2024-03-25T10:44:36;1.98;;;1.08;;
77586;SDS011;66744;49.716;17.158;2024-03-25T10:47:42;3.83;;;2.13;;
77586;SDS011;66744;49.716;17.158;2024-03-25T10:50:47;1.90;;;1.42;;
77586;SDS011;66744;49.716;17.158;2024-03-25T10:53:53;1.15;;;1.05;;
77586;SDS011;66744;49.716;17.158;2024-03-25T10:56:59;1.92;;;1.80;;
77586;SDS011;66744;49.716;17.158;2024-03-25T11:00:10;1.83;;;1.42;;
77586;SDS011;66744;49.716;17.158;2024-03-25T11:03:34;2.00;;;1.40;;
77586;SDS011;66744;49.716;17.158;2024-03-25T11:06:39;2.35;;;2.15;;
77586;SDS011;66744;49.716;17.158;2024-03-25T11:09:41;1.95;;;1.50;;
77586;SDS011;66744;49.716;17.158;2024-03-25T11:12:43;3.25;;;1.65;;
77586;SDS011;66744;49.716;17.158;2024-03-25T11:15:52;1.70;;;1.60;;
77586;SDS011;66744;49.716;17.158;2024-03-25T11:19:10;2.33;;;1.73;;
77586;SDS011;66744;49.716;17.158;2024-03-25T11:22:24;2.33;;;1.33;;
77586;SDS011;66744;49.716;17.158;2024-03-25T11:25:41;3.13;;;0.80;;
77586;SDS011;66744;49.716;17.158;2024-03-25T11:28:45;1.73;;;1.50;;
77586;SDS011;66744;49.716;17.158;2024-03-25T11:31:50;1.15;;;0.80;;
77586;SDS011;66744;49.716;17.158;2024-03-25T11:34:53;2.25;;;0.75;;
77586;SDS011;66744;49.716;17.158;2024-03-25T11:37:55;1.42;;;1.30;;
77586;SDS011;66744;49.716;17.158;2024-03-25T11:41:03;1.38;;;0.77;;
77586;SDS011;66744;49.716;17.158;2024-03-25T11:44:05;1.33;;;0.60;;
77586;SDS011;66744;49.716;17.158;2024-03-25T11:47:11;2.33;;;0.93;;
77586;SDS011;66744;49.716;17.158;2024-03-25T11:50:13;1.20;;;1.10;;
77586;SDS011;66744;49.716;17.158;2024-03-25T11:53:18;1.20;;;1.05;;
77586;SDS011;66744;49.716;17.158;2024-03-25T11:56:20;1.00;;;0.88;;
77586;SDS011;66744;49.716;17.158;2024-03-25T11:59:25;1.27;;;1.17;;
77586;SDS011;66744;49.716;17.158;2024-03-25T12:02:29;1.80;;;0.90;;
77586;SDS011;66744;49.716;17.158;2024-03-25T12:05:35;1.38;;;1.27;;
77586;SDS011;66744;49.716;17.158;2024-03-25T12:08:46;0.93;;;0.80;;
77586;SDS011;66744;49.716;17.158;2024-03-25T12:12:06;1.13;;;0.93;;
77586;SDS011;66744;49.716;17.158;2024-03-25T12:15:18;1.40;;;0.82;;
77586;SDS011;66744;49.716;17.158;2024-03-25T12:21:32;1.63;;;1.13;;
77586;SDS011;66744;49.716;17.158;2024-03-25T12:24:36;1.48;;;1.38;;
77586;SDS011;66744;49.716;17.158;2024-03-25T12:27:38;1.45;;;1.10;;
77586;SDS011;66744;49.716;17.158;2024-03-25T12:30:56;1.65;;;1.30;;
77586;SDS011;66744;49.716;17.158;2024-03-25T12:34:12;1.45;;;1.35;;
77586;SDS011;66744;49.716;17.158;2024-03-25T12:37:30;3.13;;;1.88;;
77586;SDS011;66744;49.716;17.158;2024-03-25T12:40:34;1.75;;;1.65;;
77586;SDS011;66744;49.716;17.158;2024-03-25T12:43:49;3.63;;;1.90;;
77586;SDS011;66744;49.716;17.158;2024-03-25T12:47:05;2.03;;;1.67;;
77586;SDS011;66744;49.716;17.158;2024-03-25T12:50:14;1.73;;;1.38;;
77586;SDS011;66744;49.716;17.158;2024-03-25T12:53:41;2.45;;;1.95;;
77586;SDS011;66744;49.716;17.158;2024-03-25T12:56:43;1.55;;;1.25;;
77586;SDS011;66744;49.716;17.158;2024-03-25T13:00:57;2.60;;;2.30;;
77586;SDS011;66744;49.716;17.158;2024-03-25T13:08:44;2.50;;;2.30;;
77586;SDS011;66744;49.716;17.158;2024-03-25T13:11:46;2.40;;;2.00;;
77586;SDS011;66744;49.716;17.158;2024-03-25T13:15:04;3.92;;;2.42;;
77586;SDS011;66744;49.716;17.158;2024-03-25T13:18:08;2.22;;;2.03;;
77586;SDS011;66744;49.716;17.158;2024-03-25T13:21:12;3.55;;;2.58;;
77586;SDS011;66744;49.716;17.158;2024-03-25T13:24:14;3.67;;;2.85;;
77586;SDS011;66744;49.716;17.158;2024-03-25T13:27:28;2.97;;;2.78;;
77586;SDS011;66744;49.716;17.158;2024-03-25T13:30:30;1.88;;;1.52;;
77586;SDS011;66744;49.716;17.158;2024-03-25T13:33:58;2.13;;;1.92;;
77586;SDS011;66744;49.716;17.158;2024-03-25T13:37:09;3.00;;;2.78;;
77586;SDS011;66744;49.716;17.158;2024-03-25T13:40:14;2.95;;;2.65;;
77586;SDS011;66744;49.716;17.158;2024-03-25T13:47:12;2.40;;;1.98;;
77586;SDS011;66744;49.716;17.158;2024-03-25T13:50:18;2.92;;;2.22;;
77586;SDS011;66744;49.716;17.158;2024-03-25T13:53:30;2.13;;;1.92;;
77586;SDS011;66744;49.716;17.158;2024-03-25T13:57:09;2.92;;;1.98;;
77586;SDS011;66744;49.716;17.158;2024-03-25T14:00:44;2.17;;;1.98;;
77586;SDS011;66744;49.716;17.158;2024-03-25T14:09:05;2.45;;;1.23;;
77586;SDS011;66744;49.716;17.158;2024-03-25T14:12:12;2.28;;;2.08;;
77586;SDS011;66744;49.716;17.158;2024-03-25T14:15:19;2.13;;;1.90;;
77586;SDS011;66744;49.716;17.158;2024-03-25T14:18:46;3.15;;;2.13;;
77586;SDS011;66744;49.716;17.158;2024-03-25T14:22:03;2.05;;;1.88;;
77586;SDS011;66744;49.716;17.158;2024-03-25T14:25:07;2.50;;;1.70;;
77586;SDS011;66744;49.716;17.158;2024-03-25T14:28:10;2.13;;;1.95;;
77586;SDS011;66744;49.716;17.158;2024-03-25T14:31:29;1.85;;;1.60;;
77586;SDS011;66744;49.716;17.158;2024-03-25T14:34:34;1.98;;;1.65;;
77586;SDS011;66744;49.716;17.158;2024-03-25T14:37:45;2.08;;;1.77;;
77586;SDS011;66744;49.716;17.158;2024-03-25T14:41:11;2.70;;;2.50;;
77586;SDS011;66744;49.716;17.158;2024-03-25T14:44:25;2.35;;;2.15;;
77586;SDS011;66744;49.716;17.158;2024-03-25T14:47:41;2.00;;;1.83;;
77586;SDS011;66744;49.716;17.158;2024-03-25T14:50:55;2.13;;;1.52;;
77586;SDS011;66744;49.716;17.158;2024-03-25T14:54:14;2.58;;;1.05;;
77586;SDS011;66744;49.716;17.158;2024-03-25T14:57:47;2.25;;;1.85;;
77586;SDS011;66744;49.716;17.158;2024-03-25T15:01:17;2.33;;;2.13;;
77586;SDS011;66744;49.716;17.158;2024-03-25T15:13:59;2.45;;;1.80;;
77586;SDS011;66744;49.716;17.158;2024-03-25T15:17:23;2.35;;;1.80;;
77586;SDS011;66744;49.716;17.158;2024-03-25T15:20:25;2.30;;;2.10;;
77586;SDS011;66744;49.716;17.158;2024-03-25T15:23:35;2.40;;;2.13;;
77586;SDS011;66744;49.716;17.158;2024-03-25T15:26:41;1.63;;;1.42;;
77586;SDS011;66744;49.716;17.158;2024-03-25T15:29:51;3.00;;;1.80;;
77586;SDS011;66744;49.716;17.158;2024-03-25T15:32:57;1.98;;;1.73;;
77586;SDS011;66744;49.716;17.158;2024-03-25T15:36:18;1.67;;;1.58;;
77586;SDS011;66744;49.716;17.158;2024-03-25T15:39:22;2.40;;;2.10;;
77586;SDS011;66744;49.716;17.158;2024-03-25T15:42:54;2.20;;;2.00;;
77586;SDS011;66744;49.716;17.158;2024-03-25T15:46:25;2.28;;;1.63;;
77586;SDS011;66744;49.716;17.158;2024-03-25T15:49:27;2.30;;;1.90;;
77586;SDS011;66744;49.716;17.158;2024-03-25T15:52:36;2.15;;;1.95;;
77586;SDS011;66744;49.716;17.158;2024-03-25T15:56:19;1.88;;;1.27;;
77586;SDS011;66744;49.716;17.158;2024-03-25T16:00:01;1.85;;;1.65;;
77586;SDS011;66744;49.716;17.158;2024-03-25T16:03:44;2.65;;;2.05;;
77586;SDS011;66744;49.716;17.158;2024-03-25T16:07:14;2.97;;;1.45;;
77586;SDS011;66744;49.716;17.158;2024-03-25T16:14:49;4.00;;;1.75;;
77586;SDS011;66744;49.716;17.158;2024-03-25T16:18:19;2.97;;;1.85;;
77586;SDS011;66744;49.716;17.158;2024-03-25T16:26:08;6.07;;;2.30;;
77586;SDS011;66744;49.716;17.158;2024-03-25T16:29:32;3.20;;;1.95;;
77586;SDS011;66744;49.716;17.158;2024-03-25T16:32:41;2.88;;;1.67;;
77586;SDS011;66744;49.716;17.158;2024-03-25T16:35:42;2.45;;;2.10;;
77586;SDS011;66744;49.716;17.158;2024-03-25T16:38:46;2.15;;;1.65;;
77586;SDS011;66744;49.716;17.158;2024-03-25T16:41:51;3.13;;;2.38;;
77586;SDS011;66744;49.716;17.158;2024-03-25T16:44:55;3.10;;;2.05;;
77586;SDS011;66744;49.716;17.158;2024-03-25T16:48:00;3.17;;;1.55;;
77586;SDS011;66744;49.716;17.158;2024-03-25T16:51:37;3.08;;;1.73;;
77586;SDS011;66744;49.716;17.158;2024-03-25T16:54:45;2.28;;;1.65;;
77586;SDS011;66744;49.716;17.158;2024-03-25T16:57:49;4.43;;;1.75;;
77586;SDS011;66744;49.716;17.158;2024-03-25T17:00:51;3.40;;;2.03;;
77586;SDS011;66744;49.716;17.158;2024-03-25T17:04:06;2.63;;;1.90;;
77586;SDS011;66744;49.716;17.158;2024-03-25T17:07:18;3.38;;;2.10;;
77586;SDS011;66744;49.716;17.158;2024-03-25T17:10:21;2.35;;;1.67;;
77586;SDS011;66744;49.716;17.158;2024-03-25T17:13:49;3.17;;;2.03;;
77586;SDS011;66744;49.716;17.158;2024-03-25T17:17:00;4.15;;;2.85;;
77586;SDS011;66744;49.716;17.158;2024-03-25T17:20:04;3.08;;;2.72;;
77586;SDS011;66744;49.716;17.158;2024-03-25T17:23:11;3.83;;;1.90;;
77586;SDS011;66744;49.716;17.158;2024-03-25T17:27:14;3.50;;;3.00;;
77586;SDS011;66744;49.716;17.158;2024-03-25T17:29:57;5.70;;;3.63;;
77586;SDS011;66744;49.716;17.158;2024-03-25T17:33:31;3.88;;;2.83;;
77586;SDS011;66744;49.716;17.158;2024-03-25T17:36:42;4.53;;;3.58;;
77586;SDS011;66744;49.716;17.158;2024-03-25T17:39:52;4.57;;;3.20;;
77586;SDS011;66744;49.716;17.158;2024-03-25T17:43:25;4.72;;;3.80;;
77586;SDS011;66744;49.716;17.158;2024-03-25T17:47:21;4.30;;;3.30;;
77586;SDS011;66744;49.716;17.158;2024-03-25T17:50:31;4.10;;;3.55;;
77586;SDS011;66744;49.716;17.158;2024-03-25T17:53:55;5.78;;;4.30;;
77586;SDS011;66744;49.716;17.158;2024-03-25T18:00:47;5.05;;;4.47;;
77586;SDS011;66744;49.716;17.158;2024-03-25T18:04:04;6.10;;;4.30;;
77586;SDS011;66744;49.716;17.158;2024-03-25T18:07:14;5.25;;;4.38;;
77586;SDS011;66744;49.716;17.158;2024-03-25T18:10:44;4.53;;;3.70;;
77586;SDS011;66744;49.716;17.158;2024-03-25T18:13:47;3.28;;;2.22;;
77586;SDS011;66744;49.716;17.158;2024-03-25T18:17:20;3.55;;;2.47;;
77586;SDS011;66744;49.716;17.158;2024-03-25T18:20:21;2.60;;;1.77;;
77586;SDS011;66744;49.716;17.158;2024-03-25T18:23:29;3.72;;;2.50;;
77586;SDS011;66744;49.716;17.158;2024-03-25T18:26:33;5.07;;;4.68;;
77586;SDS011;66744;49.716;17.158;2024-03-25T18:29:56;4.78;;;4.38;;
77586;SDS011;66744;49.716;17.158;2024-03-25T18:33:11;4.88;;;4.22;;
77586;SDS011;66744;49.716;17.158;2024-03-25T18:36:27;4.78;;;3.13;;
77586;SDS011;66744;49.716;17.158;2024-03-25T18:39:32;4.45;;;3.78;;
77586;SDS011;66744;49.716;17.158;2024-03-25T18:42:47;3.95;;;3.10;;
77586;SDS011;66744;49.716;17.158;2024-03-25T18:49:21;6.78;;;5.05;;
77586;SDS011;66744;49.716;17.158;2024-03-25T18:53:16;9.48;;;5.78;;
77586;SDS011;66744;49.716;17.158;2024-03-25T18:56:59;11.98;;;5.50;;
77586;SDS011;66744;49.716;17.158;2024-03-25T19:00:06;11.80;;;8.95;;
77586;SDS011;66744;49.716;17.158;2024-03-25T19:03:17;16.88;;;10.65;;
77586;SDS011;66744;49.716;17.158;2024-03-25T19:06:32;20.00;;;12.25;;
77586;SDS011;66744;49.716;17.158;2024-03-25T19:09:43;17.58;;;11.75;;
77586;SDS011;66744;49.716;17.158;2024-03-25T19:12:57;22.08;;;13.23;;
77586;SDS011;66744;49.716;17.158;2024-03-25T19:16:02;20.60;;;14.43;;
77586;SDS011;66744;49.716;17.158;2024-03-25T19:19:15;19.25;;;13.32;;
77586;SDS011;66744;49.716;17.158;2024-03-25T19:22:19;19.63;;;12.93;;
77586;SDS011;66744;49.716;17.158;2024-03-25T19:25:31;21.80;;;13.27;;
77586;SDS011;66744;49.716;17.158;2024-03-25T19:28:33;15.90;;;12.20;;
77586;SDS011;66744;49.716;17.158;2024-03-25T19:31:51;14.02;;;10.65;;
77586;SDS011;66744;49.716;17.158;2024-03-25T19:35:01;11.60;;;9.13;;
77586;SDS011;66744;49.716;17.158;2024-03-25T19:38:26;9.00;;;7.25;;
77586;SDS011;66744;49.716;17.158;2024-03-25T19:45:13;13.32;;;10.30;;